createdAt,value
2019-04-30T00:00:46.487Z,100389.63
2019-04-30T00:05:57.327Z,100393.08
2019-04-30T00:11:02.122Z,100391.48
2019-04-30T00:16:08.308Z,100380.34
2019-04-30T00:21:15.161Z,100374.27
2019-04-30T00:26:20.901Z,100377.95
2019-04-30T00:31:27.480Z,100374.78
2019-04-30T00:36:34.202Z,100358.63
2019-04-30T00:41:44.104Z,100367.34
2019-04-30T00:46:48.325Z,100363.91
2019-04-30T00:51:57.174Z,100362.59
2019-04-30T00:57:04.437Z,100364.45
2019-04-30T01:02:29.090Z,100363.61
2019-04-30T01:07:26.827Z,100368.89
2019-04-30T01:12:38.483Z,100364.92
2019-04-30T01:17:40.877Z,100362.26
2019-04-30T01:22:45.946Z,100358.81
2019-04-30T01:27:51.516Z,100359.08
2019-04-30T01:32:58.171Z,100357.73
2019-04-30T01:38:04.068Z,100346.59
2019-04-30T01:43:15.208Z,100353.97
2019-04-30T01:48:20.249Z,100353.65
2019-04-30T01:53:28.490Z,100347.31
2019-04-30T01:58:40.857Z,100343.84
2019-04-30T02:03:46.273Z,100344.11
2019-04-30T02:08:51.323Z,100349.94
2019-04-30T02:13:56.387Z,100355.19
2019-04-30T02:19:01.773Z,100358.81
2019-04-30T02:24:08.930Z,100364.59
2019-04-30T02:29:14.151Z,100363.78
2019-04-30T02:34:30.289Z,100370.16
2019-04-30T02:39:35.826Z,100375.38
2019-04-30T02:44:42.041Z,100376.67
2019-04-30T02:49:52.910Z,100364.20
2019-04-30T02:54:54.757Z,100372.34
2019-04-30T03:00:14.161Z,100372.30
2019-04-30T03:05:20.269Z,100379.07
2019-04-30T03:10:26.064Z,100372.99
2019-04-30T03:15:31.451Z,100366.95
2019-04-30T03:20:54.560Z,100371.15
2019-04-30T03:25:59.891Z,100374.73
2019-04-30T03:31:05.713Z,100384.23
2019-04-30T03:36:12.804Z,100374.17
2019-04-30T03:41:19.906Z,100374.91
2019-04-30T03:46:26.387Z,100380.46
2019-04-30T03:51:31.370Z,100387.27
2019-04-30T03:56:39.477Z,100387.41
2019-04-30T04:02:05.946Z,100394.79
2019-04-30T04:07:29.812Z,100394.00
2019-04-30T04:12:34.163Z,100402.45
2019-04-30T04:17:39.940Z,100403.98
2019-04-30T04:22:45.537Z,100407.30
2019-04-30T04:27:52.280Z,100414.29
2019-04-30T04:32:59.681Z,100415.91
2019-04-30T04:38:04.307Z,100415.33
2019-04-30T04:43:10.458Z,100413.53
2019-04-30T04:48:15.783Z,100423.83
2019-04-30T04:53:21.431Z,100427.45
2019-04-30T04:58:26.462Z,100429.47
2019-04-30T05:03:34.922Z,100422.23
2019-04-30T05:08:40.187Z,100428.98
2019-04-30T05:13:52.753Z,100435.61
2019-04-30T05:19:01.223Z,100443.92
2019-04-30T05:24:09.054Z,100444.96
2019-04-30T05:29:14.329Z,100444.28
2019-04-30T05:34:19.462Z,100445.75
2019-04-30T05:39:24.441Z,100451.83
2019-04-30T05:44:29.921Z,100454.81
2019-04-30T05:49:35.167Z,100454.08
2019-04-30T05:54:40.510Z,100456.30
2019-04-30T05:59:48.869Z,100451.58
2019-04-30T06:04:55.463Z,100458.41
2019-04-30T06:10:29.428Z,100465.53
2019-04-30T06:15:50.749Z,100461.22
2019-04-30T06:20:59.466Z,100458.84
2019-04-30T06:26:36.594Z,100454.19
2019-04-30T06:32:09.537Z,100461.32
2019-04-30T06:37:19.417Z,100470.17
2019-04-30T06:42:32.055Z,100471.78
2019-04-30T06:47:39.062Z,100469.80
2019-04-30T06:52:56.262Z,100470.42
2019-04-30T06:57:56.383Z,100473.91
2019-04-30T07:03:02.768Z,100467.95
2019-04-30T07:08:38.865Z,100469.33
2019-04-30T07:13:33.909Z,100463.98
2019-04-30T07:18:39.110Z,100471.50
2019-04-30T07:23:45.404Z,100472.61
2019-04-30T07:28:54.835Z,100472.33
2019-04-30T07:33:59.268Z,100481.39
2019-04-30T07:39:31.221Z,100483.02
2019-04-30T07:44:36.480Z,100482.30
2019-04-30T07:49:49.435Z,100480.73
2019-04-30T07:54:45.693Z,100484.96
2019-04-30T07:59:51.529Z,100487.65
2019-04-30T08:05:02.940Z,100487.66
2019-04-30T08:10:09.061Z,100485.03
2019-04-30T08:15:14.158Z,100481.61
2019-04-30T08:20:21.369Z,100487.42
2019-04-30T08:25:29.056Z,100494.05
2019-04-30T08:30:34.493Z,100483.98
2019-04-30T08:35:39.971Z,100478.16
2019-04-30T08:40:55.513Z,100481.59
2019-04-30T08:45:53.204Z,100477.36
2019-04-30T08:51:02.155Z,100472.78
2019-04-30T08:56:10.113Z,100472.43
2019-04-30T09:01:16.567Z,100481.17
2019-04-30T09:06:29.130Z,100485.81
2019-04-30T09:11:43.114Z,100492.06
2019-04-30T09:16:40.545Z,100481.27
2019-04-30T09:21:48.883Z,100480.65
2019-04-30T09:26:55.814Z,100475.01
2019-04-30T09:32:01.036Z,100468.92
2019-04-30T09:37:06.111Z,100472.78
2019-04-30T09:42:11.713Z,100463.75
2019-04-30T09:47:16.809Z,100466.28
2019-04-30T09:52:23.160Z,100465.33
2019-04-30T09:57:29.005Z,100467.32
2019-04-30T10:02:34.456Z,100469.73
2019-04-30T10:07:39.899Z,100460.93
2019-04-30T10:12:45.583Z,100459.30
2019-04-30T10:17:53.949Z,100454.13
2019-04-30T10:23:01.530Z,100452.08
2019-04-30T10:28:10.275Z,100459.06
2019-04-30T10:33:15.545Z,100446.38
2019-04-30T10:38:20.623Z,100430.49
2019-04-30T10:43:26.216Z,100423.29
2019-04-30T10:48:31.368Z,100428.92
2019-04-30T10:53:36.533Z,100430.68
2019-04-30T10:59:04.681Z,100432.41
2019-04-30T11:04:11.329Z,100429.75
2019-04-30T11:09:16.639Z,100435.92
2019-04-30T11:14:21.848Z,100440.00
2019-04-30T11:19:29.249Z,100442.41
2019-04-30T11:24:38.171Z,100434.66
2019-04-30T11:29:41.464Z,100427.08
2019-04-30T11:34:47.830Z,100411.09
2019-04-30T11:40:01.957Z,100410.87
2019-04-30T11:45:10.820Z,100398.53
2019-04-30T11:50:16.660Z,100409.43
2019-04-30T11:55:24.277Z,100410.76
2019-04-30T12:00:36.813Z,100407.00
2019-04-30T12:05:43.977Z,100413.17
2019-04-30T12:11:15.409Z,100389.67
2019-04-30T12:16:22.540Z,100392.94
2019-04-30T12:21:28.280Z,100382.55
2019-04-30T12:26:34.842Z,100381.83
2019-04-30T12:31:41.754Z,100374.16
2019-04-30T12:36:46.789Z,100372.02
2019-04-30T12:41:52.331Z,100370.98
2019-04-30T12:46:58.657Z,100365.23
2019-04-30T12:52:15.384Z,100369.20
2019-04-30T12:57:29.252Z,100354.40
2019-04-30T13:02:34.273Z,100360.88
2019-04-30T13:07:40.343Z,100356.06
2019-04-30T13:12:46.760Z,100341.19
2019-04-30T13:17:54.868Z,100336.76
2019-04-30T13:23:02.137Z,100325.95
2019-04-30T13:28:14.015Z,100317.77
2019-04-30T13:33:31.517Z,100315.67
2019-04-30T13:38:52.400Z,100312.32
2019-04-30T13:43:59.063Z,100312.06
2019-04-30T13:49:05.359Z,100305.63
2019-04-30T13:54:10.410Z,100295.95
2019-04-30T13:59:15.921Z,100295.86
2019-04-30T14:04:40.125Z,100290.07
2019-04-30T14:09:45.267Z,100294.79
2019-04-30T14:14:50.964Z,100282.74
2019-04-30T14:19:56.249Z,100281.63
2019-04-30T14:25:01.697Z,100281.45
2019-04-30T14:30:09.354Z,100278.41
2019-04-30T14:35:14.594Z,100273.48
2019-04-30T14:40:26.268Z,100263.46
2019-04-30T14:45:42.627Z,100264.72
2019-04-30T14:50:49.384Z,100260.50
2019-04-30T14:56:19.647Z,100257.89
2019-04-30T15:02:01.475Z,100248.69
2019-04-30T15:13:19.514Z,100243.59
2019-04-30T15:18:29.126Z,100246.77
2019-04-30T15:24:09.436Z,100232.59
2019-04-30T15:29:16.229Z,100231.58
2019-04-30T15:34:24.017Z,100225.27
2019-04-30T15:39:39.350Z,100226.17
2019-04-30T15:44:45.969Z,100229.52
2019-04-30T15:49:51.889Z,100233.19
2019-04-30T15:54:59.209Z,100227.91
2019-04-30T16:00:06.595Z,100230.69
2019-04-30T16:05:33.574Z,100229.89
2019-04-30T16:11:09.857Z,100220.52
2019-04-30T16:16:14.038Z,100220.61
2019-04-30T16:21:21.208Z,100224.51
2019-04-30T16:26:31.612Z,100221.76
2019-04-30T16:31:42.120Z,100215.80
2019-04-30T16:36:46.163Z,100208.05
2019-04-30T16:41:52.171Z,100205.36
2019-04-30T16:47:12.997Z,100202.46
2019-04-30T16:52:09.969Z,100203.06
2019-04-30T16:57:17.595Z,100195.09
2019-04-30T17:02:24.645Z,100198.35
2019-04-30T17:08:19.341Z,100194.56
2019-04-30T17:13:41.989Z,100192.41
2019-04-30T17:19:04.917Z,100191.90
2019-04-30T17:24:10.217Z,100190.89
2019-04-30T17:29:15.764Z,100188.16
2019-04-30T17:34:21.228Z,100190.80
2019-04-30T17:39:26.896Z,100187.67
2019-04-30T17:44:32.536Z,100187.20
2019-04-30T17:55:49.166Z,100181.48
2019-04-30T18:01:09.198Z,100180.53
2019-04-30T18:06:16.682Z,100180.67
2019-04-30T18:11:22.717Z,100180.72
2019-04-30T18:16:28.682Z,100183.31
2019-04-30T18:21:41.267Z,100179.11
2019-04-30T18:26:53.746Z,100191.23
2019-04-30T18:31:59.919Z,100185.72
2019-04-30T18:37:05.223Z,100183.97
2019-04-30T18:42:12.693Z,100185.72
2019-04-30T18:47:18.903Z,100184.50
2019-04-30T18:52:24.137Z,100187.86
2019-04-30T18:57:29.575Z,100192.38
2019-04-30T19:02:34.976Z,100190.13
2019-04-30T19:07:56.001Z,100192.74
2019-04-30T19:13:13.661Z,100191.48
2019-04-30T19:18:29.907Z,100195.05
2019-04-30T19:23:35.707Z,100203.53
2019-04-30T19:28:49.997Z,100201.34
2019-04-30T19:33:56.223Z,100208.27
2019-04-30T19:39:01.341Z,100208.03
2019-04-30T19:44:08.501Z,100209.84
2019-04-30T19:49:13.742Z,100212.42
2019-04-30T19:54:20.850Z,100205.00
2019-04-30T19:59:26.371Z,100204.98
2019-04-30T20:04:35.664Z,100207.55
2019-04-30T20:09:38.618Z,100202.87
2019-04-30T20:14:43.869Z,100210.55
2019-04-30T20:19:49.241Z,100205.89
2019-04-30T20:24:54.858Z,100208.84
2019-04-30T20:30:02.776Z,100211.93
2019-04-30T20:35:09.763Z,100205.22
2019-04-30T20:40:18.486Z,100204.32
2019-04-30T20:45:24.193Z,100206.03
2019-04-30T20:50:29.339Z,100202.22
2019-04-30T20:55:34.403Z,100201.44
2019-04-30T21:00:39.935Z,100202.77
2019-04-30T21:05:46.601Z,100205.58
2019-04-30T21:10:56.851Z,100199.98
2019-04-30T21:16:02.841Z,100189.84
2019-04-30T21:21:09.950Z,100191.92
2019-04-30T21:26:16.741Z,100196.95
2019-04-30T21:31:56.182Z,100196.34
2019-04-30T21:37:04.860Z,100206.59
2019-04-30T21:42:10.095Z,100204.45
2019-04-30T21:47:15.591Z,100196.94
2019-04-30T21:52:20.907Z,100194.88
2019-04-30T21:57:27.557Z,100194.07
2019-04-30T22:02:34.006Z,100191.52
2019-04-30T22:07:40.310Z,100190.09
2019-04-30T22:12:46.260Z,100184.42
2019-04-30T22:17:57.239Z,100182.47
2019-04-30T22:23:04.001Z,100183.14
2019-04-30T22:28:41.268Z,100179.14
2019-04-30T22:34:10.132Z,100181.30
2019-04-30T22:39:29.882Z,100173.86
2019-04-30T22:44:37.948Z,100176.23
2019-04-30T22:49:45.279Z,100170.33
2019-04-30T22:54:58.729Z,100168.80
2019-04-30T23:00:20.815Z,100166.69
2019-04-30T23:05:26.090Z,100161.88
2019-04-30T23:10:31.166Z,100166.39
2019-04-30T23:15:37.070Z,100157.86
2019-04-30T23:20:42.297Z,100164.82
2019-04-30T23:25:47.455Z,100160.87
2019-04-30T23:30:52.526Z,100159.68
2019-04-30T23:35:58.174Z,100149.84
2019-04-30T23:41:04.833Z,100136.14
2019-04-30T23:46:10.277Z,100140.12
2019-04-30T23:51:15.309Z,100137.47
2019-04-30T23:56:20.379Z,100129.64
